createdAt,value
2022-10-11T00:00:21.104Z,0.00
2022-10-11T00:05:26.755Z,0.00
2022-10-11T00:10:32.892Z,0.00
2022-10-11T00:15:21.877Z,0.00
2022-10-11T00:20:28.012Z,0.00
2022-10-11T00:25:16.971Z,0.00
2022-10-11T00:30:22.246Z,0.00
2022-10-11T00:35:28.496Z,0.00
2022-10-11T00:40:17.400Z,0.00
2022-10-11T00:45:23.531Z,0.00
2022-10-11T00:50:30.349Z,0.00
2022-10-11T00:55:18.473Z,0.00
2022-10-11T01:00:24.562Z,0.00
2022-10-11T01:05:30.598Z,0.00
2022-10-11T01:10:18.953Z,0.00
2022-10-11T01:15:24.998Z,0.00
2022-10-11T01:20:31.045Z,0.00
2022-10-11T01:25:20.270Z,0.00
2022-10-11T01:30:25.858Z,0.00
2022-10-11T01:35:32.502Z,0.00
2022-10-11T01:40:21.096Z,0.00
2022-10-11T01:45:27.079Z,0.00
2022-10-11T01:50:16.060Z,0.00
2022-10-11T01:55:22.170Z,0.00
2022-10-11T02:00:28.218Z,0.00
2022-10-11T02:05:17.546Z,0.00
2022-10-11T02:10:23.697Z,0.00
2022-10-11T02:15:29.611Z,0.00
2022-10-11T02:20:18.792Z,0.00
2022-10-11T02:25:24.757Z,0.00
2022-10-11T02:30:30.597Z,0.00
2022-10-11T02:35:19.558Z,0.00
2022-10-11T02:40:25.664Z,0.00
2022-10-11T02:45:31.947Z,0.00
2022-10-11T02:50:20.734Z,0.00
2022-10-11T02:55:26.825Z,0.00
2022-10-11T03:00:32.956Z,0.00
2022-10-11T03:05:21.142Z,0.00
2022-10-11T03:10:27.268Z,0.00
2022-10-11T03:15:16.348Z,0.00
2022-10-11T03:20:22.349Z,0.00
2022-10-11T03:25:28.473Z,0.00
2022-10-11T03:30:18.341Z,0.00
2022-10-11T03:35:23.281Z,0.00
2022-10-11T03:40:29.265Z,0.00
2022-10-11T03:45:18.325Z,0.00
2022-10-11T03:50:24.535Z,0.00
2022-10-11T03:55:30.540Z,0.00
2022-10-11T04:00:19.455Z,0.00
2022-10-11T04:05:25.372Z,0.00
2022-10-11T04:10:31.438Z,0.00
2022-10-11T04:15:20.466Z,0.00
2022-10-11T04:20:26.594Z,0.00
2022-10-11T04:25:32.700Z,0.00
2022-10-11T04:30:21.821Z,0.00
2022-10-11T04:35:27.906Z,0.00
2022-10-11T04:40:16.913Z,0.00
2022-10-11T04:45:22.917Z,0.00
2022-10-11T04:50:29.116Z,0.00
2022-10-11T04:55:18.018Z,0.00
2022-10-11T05:00:24.209Z,0.00
2022-10-11T05:05:30.096Z,0.00
2022-10-11T05:10:19.083Z,0.00
2022-10-11T05:15:25.099Z,0.00
2022-10-11T05:20:31.222Z,0.00
2022-10-11T05:25:20.214Z,0.00
2022-10-11T05:30:26.331Z,0.00
2022-10-11T05:35:32.429Z,0.05
2022-10-11T05:40:21.724Z,0.57
2022-10-11T05:45:27.503Z,1.61
2022-10-11T05:50:19.638Z,2.42
2022-10-11T05:55:22.665Z,4.42
2022-10-11T06:00:28.733Z,7.19
2022-10-11T06:05:16.968Z,8.74
2022-10-11T06:10:23.093Z,10.77
2022-10-11T06:15:29.114Z,11.04
2022-10-11T06:20:18.150Z,12.83
2022-10-11T06:25:24.287Z,13.59
2022-10-11T06:30:29.920Z,12.03
2022-10-11T06:35:18.955Z,17.55
2022-10-11T06:40:25.226Z,27.94
2022-10-11T06:45:31.137Z,44.05
2022-10-11T06:50:40.719Z,58.89
2022-10-11T06:55:26.283Z,57.84
2022-10-11T07:00:32.317Z,41.45
2022-10-11T07:05:21.118Z,39.23
2022-10-11T07:10:27.720Z,49.79
2022-10-11T07:15:16.711Z,43.91
2022-10-11T07:20:23.149Z,41.88
2022-10-11T07:25:28.945Z,45.26
2022-10-11T07:30:18.038Z,63.91
2022-10-11T07:35:24.095Z,93.08
2022-10-11T07:40:30.883Z,83.33
2022-10-11T07:45:20.015Z,61.49
2022-10-11T07:50:25.309Z,49.90
2022-10-11T07:55:31.553Z,37.84
2022-10-11T08:00:21.177Z,42.23
2022-10-11T08:05:27.703Z,51.28
2022-10-11T08:10:32.428Z,68.98
2022-10-11T08:15:21.300Z,84.32
2022-10-11T08:20:27.740Z,96.21
2022-10-11T08:25:34.032Z,70.57
2022-10-11T08:30:21.604Z,61.57
2022-10-11T08:35:27.649Z,76.50
2022-10-11T08:40:17.066Z,88.04
2022-10-11T08:45:22.982Z,93.43
2022-10-11T08:50:28.820Z,98.49
2022-10-11T08:55:17.802Z,134.48
2022-10-11T09:00:24.511Z,158.52
2022-10-11T09:05:29.784Z,163.61
2022-10-11T09:10:18.795Z,163.16
2022-10-11T09:15:24.788Z,158.98
2022-10-11T09:20:31.573Z,177.34
2022-10-11T09:25:20.007Z,194.93
2022-10-11T09:30:26.227Z,179.85
2022-10-11T09:35:32.310Z,177.39
2022-10-11T09:40:21.439Z,163.77
2022-10-11T09:45:27.411Z,167.61
2022-10-11T09:50:33.511Z,93.96
2022-10-11T09:55:22.400Z,101.33
2022-10-11T10:00:29.385Z,119.89
2022-10-11T10:05:17.426Z,145.20
2022-10-11T10:10:23.416Z,142.77
2022-10-11T10:15:29.408Z,174.77
2022-10-11T10:20:19.073Z,169.52
2022-10-11T10:25:24.515Z,131.83
2022-10-11T10:30:35.230Z,110.29
2022-10-11T10:35:19.053Z,124.75
2022-10-11T10:40:25.286Z,130.85
2022-10-11T10:45:31.191Z,126.90
2022-10-11T10:50:20.032Z,162.67
2022-10-11T10:55:27.037Z,167.61
2022-10-11T11:00:32.981Z,158.71
2022-10-11T11:05:20.981Z,190.94
2022-10-11T11:10:27.053Z,188.03
2022-10-11T11:15:37.775Z,213.06
2022-10-11T11:20:22.645Z,218.19
2022-10-11T11:25:28.266Z,217.43
2022-10-11T11:30:16.396Z,174.49
2022-10-11T11:35:22.488Z,102.26
2022-10-11T11:40:29.072Z,88.90
2022-10-11T11:45:17.533Z,94.30
2022-10-11T11:50:23.788Z,108.96
2022-10-11T11:55:29.799Z,127.38
2022-10-11T12:00:19.180Z,125.76
2022-10-11T12:05:24.832Z,138.76
2022-10-11T12:10:30.785Z,138.43
2022-10-11T12:15:19.783Z,143.40
2022-10-11T12:20:26.481Z,184.96
2022-10-11T12:25:32.487Z,232.10
2022-10-11T12:30:21.029Z,227.62
2022-10-11T12:35:27.158Z,226.73
2022-10-11T12:40:33.319Z,251.31
2022-10-11T12:45:22.227Z,204.19
2022-10-11T12:50:28.541Z,256.42
2022-10-11T12:55:17.301Z,232.71
2022-10-11T13:00:23.863Z,204.65
2022-10-11T13:05:29.293Z,264.60
2022-10-11T13:10:18.355Z,313.59
2022-10-11T13:15:24.382Z,335.01
2022-10-11T13:20:30.886Z,248.75
2022-10-11T13:25:19.495Z,158.39
2022-10-11T13:30:24.677Z,102.77
2022-10-11T13:35:30.701Z,104.00
2022-10-11T13:40:21.969Z,53.06
2022-10-11T13:45:25.833Z,41.98
2022-10-11T13:50:32.404Z,40.77
2022-10-11T13:55:21.055Z,44.12
2022-10-11T14:00:27.931Z,43.16
2022-10-11T14:05:34.223Z,40.28
2022-10-11T14:10:21.469Z,46.58
2022-10-11T14:15:27.516Z,57.20
2022-10-11T14:20:16.902Z,61.17
2022-10-11T14:25:22.643Z,67.28
2022-10-11T14:30:29.309Z,47.60
2022-10-11T14:35:18.367Z,51.71
2022-10-11T14:40:24.892Z,76.34
2022-10-11T14:45:30.507Z,95.68
2022-10-11T14:50:19.564Z,98.36
2022-10-11T14:55:25.595Z,87.88
2022-10-11T15:00:32.133Z,82.96
2022-10-11T15:05:19.927Z,87.19
2022-10-11T15:10:26.166Z,78.29
2022-10-11T15:15:32.250Z,64.53
2022-10-11T15:20:21.631Z,58.33
2022-10-11T15:25:27.285Z,51.47
2022-10-11T15:30:37.089Z,46.78
2022-10-11T15:35:21.893Z,45.31
2022-10-11T15:40:28.492Z,44.28
2022-10-11T15:45:17.034Z,37.39
2022-10-11T15:50:23.123Z,33.14
2022-10-11T15:55:29.279Z,29.80
2022-10-11T16:00:22.225Z,24.19
2022-10-11T16:05:23.519Z,17.95
2022-10-11T16:10:29.575Z,12.99
2022-10-11T16:15:18.666Z,8.93
2022-10-11T16:20:25.252Z,5.87
2022-10-11T16:25:30.824Z,3.60
2022-10-11T16:30:19.928Z,1.51
2022-10-11T16:35:30.183Z,0.46
2022-10-11T16:40:33.652Z,0.00
2022-10-11T16:45:20.786Z,0.00
2022-10-11T16:50:26.772Z,0.00
2022-10-11T16:55:32.986Z,0.00
2022-10-11T17:00:22.411Z,0.00
2022-10-11T17:05:28.182Z,0.00
2022-10-11T17:10:17.217Z,0.00
2022-10-11T17:15:23.332Z,0.00
2022-10-11T17:20:29.822Z,0.00
2022-10-11T17:25:18.367Z,0.00
2022-10-11T17:30:24.290Z,0.00
2022-10-11T17:35:30.369Z,0.00
2022-10-11T17:40:19.927Z,0.00
2022-10-11T17:45:25.447Z,0.00
2022-10-11T17:50:31.624Z,0.00
2022-10-11T17:55:20.565Z,0.00
2022-10-11T18:00:27.159Z,0.00
2022-10-11T18:05:32.506Z,0.00
2022-10-11T18:10:21.449Z,0.00
2022-10-11T18:15:27.534Z,0.00
2022-10-11T18:20:17.106Z,0.00
2022-10-11T18:25:22.680Z,0.00
2022-10-11T18:30:28.923Z,0.00
2022-10-11T18:35:17.866Z,0.00
2022-10-11T18:40:24.512Z,0.00
2022-10-11T18:45:30.085Z,0.00
2022-10-11T18:50:19.117Z,0.00
2022-10-11T18:55:25.253Z,0.00
2022-10-11T19:00:40.556Z,0.00
2022-10-11T19:05:19.467Z,0.00
2022-10-11T19:10:25.606Z,0.00
2022-10-11T19:15:31.811Z,0.00
2022-10-11T19:20:21.159Z,0.00
2022-10-11T19:25:26.849Z,0.00
2022-10-11T19:30:32.717Z,0.00
2022-10-11T19:35:21.556Z,0.00
2022-10-11T19:40:30.255Z,0.00
2022-10-11T19:45:16.623Z,0.00
2022-10-11T19:50:22.762Z,0.00
2022-10-11T19:55:28.822Z,0.00
2022-10-11T20:00:18.337Z,0.00
2022-10-11T20:05:24.064Z,0.00
2022-10-11T20:10:30.138Z,0.00
2022-10-11T20:15:19.171Z,0.00
2022-10-11T20:20:25.640Z,0.00
2022-10-11T20:25:31.395Z,0.00
2022-10-11T20:30:20.084Z,0.00
2022-10-11T20:35:26.209Z,0.00
2022-10-11T20:40:33.019Z,0.00
2022-10-11T20:45:21.265Z,0.00
2022-10-11T20:50:27.324Z,0.00
2022-10-11T20:55:33.482Z,0.00
2022-10-11T21:00:23.996Z,0.00
2022-10-11T21:05:27.710Z,0.00
2022-10-11T21:10:16.753Z,0.00
2022-10-11T21:15:22.844Z,0.00
2022-10-11T21:20:29.391Z,0.00
2022-10-11T21:25:18.066Z,0.00
2022-10-11T21:30:23.819Z,0.00
2022-10-11T21:35:29.773Z,0.00
2022-10-11T21:40:19.284Z,0.00
2022-10-11T21:45:24.899Z,0.00
2022-10-11T21:50:31.020Z,0.00
2022-10-11T21:55:20.070Z,0.00
2022-10-11T22:00:27.288Z,0.00
2022-10-11T22:05:31.648Z,0.00
2022-10-11T22:10:20.724Z,0.00
2022-10-11T22:15:26.611Z,0.00
2022-10-11T22:20:33.284Z,0.00
2022-10-11T22:25:21.732Z,0.00
2022-10-11T22:30:28.457Z,0.00
2022-10-11T22:35:17.428Z,0.00
2022-10-11T22:40:24.132Z,0.00
2022-10-11T22:45:29.528Z,0.00
2022-10-11T22:50:18.506Z,0.00
2022-10-11T22:55:24.628Z,0.00
2022-10-11T23:00:31.148Z,0.00
2022-10-11T23:05:18.982Z,0.00
2022-10-11T23:10:25.078Z,0.00
2022-10-11T23:15:31.302Z,0.00
2022-10-11T23:20:21.774Z,0.00
2022-10-11T23:25:26.300Z,0.00
2022-10-11T23:30:32.138Z,0.00
2022-10-11T23:35:21.038Z,0.00
2022-10-11T23:40:27.752Z,0.00
2022-10-11T23:45:33.178Z,0.00
2022-10-11T23:50:22.184Z,0.00
2022-10-11T23:55:28.251Z,0.00
